Friday, October 19, 2018, 6:53 AM GMT
Back to Local

CWWZ, Port Weller, Ont.

Location: , , Canada Lat: 43.25
Local Time: 6:53 AM GMT ( 6:53 GMT) Lon: -79.217
Time Zone: GMT Elev: 259 ft

Show me the last for .
Show Coded

Time T Td Feel RH Dir Speed Gust Alt SLP Vis Weather Sky Remarks
2018-10-19 06:00 49 38 47 65 240° 6 - - 30.21 0 None
2018-10-19 05:00 48 37 45 65 230° 7 - - 30.21 0 None
2018-10-19 04:00 47 39 45 72 240° 5 - - 30.24 0 None
2018-10-19 03:00 44 36 40 71 210° 8 - - 30.27 0 None
2018-10-19 02:00 45 34 41 66 220° 7 - - 30.29 0 None
2018-10-19 01:00 44 34 37 66 220° 8 17 - 30.31 0 Peak wind: 19 mph (17 kts) from 230° at 37 min
2018-10-19 00:00 45 35 37 68 230° 8 18 - 30.32 0 Peak wind: 19 mph (17 kts) from 210° at 21 min
2018-10-18 23:00 44 35 36 69 220° 9 17 - 30.34 0 Peak wind: 20 mph (18 kts) from 210° at 09 min
2018-10-18 22:00 47 34 40 59 220° 10 17 - 30.34 0 None
2018-10-18 21:00 49 35 46 58 230° 7 - - 30.35 0 None
2018-10-18 20:00 50 35 - 55 260° 8 18 - 30.37 0 None
2018-10-18 19:00 48 36 41 62 250° 7 18 - 30.40 0 Peak wind: 20 mph (18 kts) from 270° at 08 min
2018-10-18 18:00 48 31 40 52 280° 16 22 - 30.43 0 Peak wind: 23 mph (20 kts) from 270° at 13 min
2018-10-18 17:00 46 33 38 59 270° 15 23 - 30.45 0 Peak wind: 23 mph (20 kts) from 280° at 49 min
2018-10-18 16:00 44 32 38 60 280° 13 - - 30.46 0 Peak wind: 19 mph (17 kts) from 280° at 36 min
2018-10-18 15:00 44 30 39 57 300° 10 - - 30.46 0 None
2018-10-18 14:00 42 31 35 66 310° 12 - - 30.46 0 None
2018-10-18 13:00 42 31 36 67 330° 9 - - 30.45 0 None
2018-10-18 12:00 40 31 33 69 320° 9 - - 30.43 0 None
2018-10-18 11:00 38 31 31 73 320° 12 - - 30.42 0 None
2018-10-18 10:00 39 31 31 73 330° 14 - - 30.41 0 Peak wind: 19 mph (17 kts) from 310° at 10 min
2018-10-18 09:00 40 35 31 81 320° 15 - - 30.39 0 Peak wind: 21 mph (19 kts) from 330° at 00 min
2018-10-18 08:00 38 33 29 81 330° 18 - - 30.38 0 Peak wind: 28 mph (25 kts) from 320° at 07 min
2018-10-18 07:00 41 34 31 74 330° 22 28 - 30.34 0 Peak wind: 31 mph (27 kts) from 320° at 02 min

Support USWX by starting your Amazon purchase here.